Time;durP1;ratioP1;P1;durP2;ratioP2;P2;SDS_P1;SDS_P2;PMS_P1;PMS_P2;Temp;Humidity;BMP_temperature;BMP_pressure;BME280_temperature;BME280_humidity;BME280_pressure;Samples;Min_cycle;Max_cycle;Signal;HPM_P1;HPM_P2
2022/12/01 00:00:33;;;;;;;;;50.50;40.00;;;;;8.61;67.71;102356.56;2388524;28;45243;-80
2022/12/01 00:01:43;;;;;;;;;50.50;38.25;;;;;8.60;67.82;102361.78;2375173;28;45164;-80
2022/12/01 00:02:54;;;;;;;;;53.75;40.00;;;;;8.57;67.72;102352.13;2377879;28;46212;-80
2022/12/01 00:04:04;;;;;;;;;48.50;36.25;;;;;8.57;67.80;102361.78;2385328;28;45164;-80
2022/12/01 00:05:14;;;;;;;;;53.25;38.50;;;;;8.55;68.39;102356.50;2385042;28;46161;-80
2022/12/01 00:06:25;;;;;;;;;52.00;38.25;;;;;8.54;68.34;102365.25;2385370;28;44618;-80
2022/12/01 00:07:35;;;;;;;;;52.75;38.75;;;;;8.51;68.22;102366.13;2384265;28;45461;-80
2022/12/01 00:10:25;;;;;;;;;50.25;35.50;;;;;8.49;68.29;102367.00;2378338;28;45501;-80
2022/12/01 00:11:37;;;;;;;;;53.00;38.50;;;;;8.48;68.29;102367.84;2381099;28;44763;-80
2022/12/01 00:12:47;;;;;;;;;53.75;40.50;;;;;8.47;68.10;102364.34;2385149;28;45289;-80
2022/12/01 00:13:58;;;;;;;;;56.25;41.25;;;;;8.47;68.25;102359.09;2384885;28;45375;-79
2022/12/01 00:15:11;;;;;;;;;52.75;40.25;;;;;8.47;68.13;102364.34;2384891;28;45274;-79
2022/12/01 00:16:21;;;;;;;;;52.75;40.50;;;;;8.48;68.25;102367.84;2385225;28;45152;-80
2022/12/01 00:17:32;;;;;;;;;54.75;41.50;;;;;8.46;67.89;102361.72;2385114;28;45211;-80
2022/12/01 00:18:43;;;;;;;;;50.25;37.50;;;;;8.44;68.42;102354.72;2384326;28;45186;-80
2022/12/01 00:19:54;;;;;;;;;52.25;40.25;;;;;8.45;68.50;102353.00;2383082;28;46198;-80
2022/12/01 00:21:04;;;;;;;;;51.00;38.00;;;;;8.44;68.31;102361.75;2383965;28;45216;-80
2022/12/01 00:22:14;;;;;;;;;52.00;41.00;;;;;8.42;68.45;102363.50;2385048;28;46468;-80
2022/12/01 00:23:25;;;;;;;;;50.25;39.25;;;;;8.41;68.24;102361.72;2375086;28;44573;-80
2022/12/01 00:24:35;;;;;;;;;51.25;37.75;;;;;8.37;68.07;102358.22;2377765;28;45218;-80
2022/12/01 00:25:45;;;;;;;;;52.00;37.75;;;;;8.36;68.35;102363.47;2385255;28;44553;-80
2022/12/01 00:26:56;;;;;;;;;51.50;37.25;;;;;8.32;68.47;102362.59;2384033;28;46581;-80
2022/12/01 00:28:06;;;;;;;;;44.00;34.75;;;;;8.29;68.50;102358.22;2385090;28;45271;-80
2022/12/01 00:29:17;;;;;;;;;50.50;38.50;;;;;8.30;68.68;102366.94;2385066;28;45462;-80
2022/12/01 00:30:27;;;;;;;;;50.50;39.50;;;;;8.29;68.31;102363.47;2383978;28;45231;-80
2022/12/01 00:31:37;;;;;;;;;55.00;39.75;;;;;8.28;68.45;102364.31;2384798;28;46339;-80
2022/12/01 00:32:49;;;;;;;;;50.75;40.25;;;;;8.30;68.41;102365.19;2384993;28;45232;-80
2022/12/01 00:34:00;;;;;;;;;48.00;37.00;;;;;8.32;68.52;102363.44;2384045;28;45597;-80
2022/12/01 00:35:11;;;;;;;;;51.75;38.75;;;;;8.32;68.52;102363.44;2384965;28;45335;-80
2022/12/01 00:36:22;;;;;;;;;52.50;37.50;;;;;8.35;68.46;102374.78;2384817;28;45442;-80
2022/12/01 00:37:33;;;;;;;;;51.00;38.75;;;;;8.35;68.30;102366.94;2374476;28;46374;-80
2022/12/01 00:38:44;;;;;;;;;54.25;41.25;;;;;8.33;68.80;102370.44;2377913;28;45307;-80
2022/12/01 00:39:54;;;;;;;;;56.25;41.00;;;;;8.36;67.92;102368.69;2385004;28;44630;-80
2022/12/01 00:41:05;;;;;;;;;52.25;36.75;;;;;8.31;68.43;102361.72;2384839;28;45364;-80
2022/12/01 00:42:15;;;;;;;;;51.50;38.50;;;;;8.30;67.95;102366.94;2384987;28;44603;-80
2022/12/01 00:43:25;;;;;;;;;54.00;39.25;;;;;8.30;68.17;102357.31;2384756;28;45435;-80
2022/12/01 00:44:36;;;;;;;;;55.25;39.75;;;;;8.33;68.25;102369.56;2384154;28;44971;-80
2022/12/01 00:45:46;;;;;;;;;46.00;36.50;;;;;8.33;68.00;102359.97;2384383;28;45481;-80
2022/12/01 00:46:56;;;;;;;;;55.25;39.75;;;;;8.35;68.03;102359.06;2383901;28;45397;-79
2022/12/01 00:48:07;;;;;;;;;53.75;38.00;;;;;8.36;68.16;102358.22;2384179;28;45570;-80
2022/12/01 00:49:17;;;;;;;;;53.00;41.25;;;;;8.33;67.53;102359.09;2384923;28;45414;-80
2022/12/01 00:50:27;;;;;;;;;50.75;38.00;;;;;8.31;67.72;102360.84;2384888;28;45345;-80
2022/12/01 00:51:38;;;;;;;;;48.25;39.50;;;;;8.29;68.09;102363.47;2384853;28;44701;-80
2022/12/01 00:52:48;;;;;;;;;50.50;40.25;;;;;8.26;67.87;102358.19;2384780;28;45503;-80
2022/12/01 00:53:59;;;;;;;;;49.50;38.00;;;;;8.24;68.33;102353.81;2385065;28;45179;-79
2022/12/01 00:55:09;;;;;;;;;53.00;41.50;;;;;8.21;68.20;102362.53;2377464;28;47336;-80
2022/12/01 00:56:20;;;;;;;;;50.00;40.50;;;;;8.19;67.58;102354.69;2382300;28;45355;-80
2022/12/01 00:57:30;;;;;;;;;51.50;38.00;;;;;8.18;67.82;102359.91;2383193;28;45381;-80
2022/12/01 00:58:41;;;;;;;;;52.25;40.75;;;;;8.18;67.46;102360.78;2374684;28;45398;-80
2022/12/01 00:59:51;;;;;;;;;50.75;40.25;;;;;8.16;67.77;102357.28;2375061;28;45253;-80
2022/12/01 01:01:02;;;;;;;;;56.75;41.25;;;;;8.19;67.98;102366.91;2383294;28;45209;-80
2022/12/01 01:02:12;;;;;;;;;48.25;35.50;;;;;8.17;67.57;102364.25;2384633;28;45433;-80
2022/12/01 01:03:22;;;;;;;;;48.25;38.75;;;;;8.16;67.67;102349.44;2384837;28;45220;-80
2022/12/01 01:04:34;;;;;;;;;48.00;38.25;;;;;8.13;68.17;102357.28;2384786;28;45374;-80
2022/12/01 01:05:45;;;;;;;;;52.75;40.00;;;;;8.12;67.86;102359.91;2384457;28;45299;-80
2022/12/01 01:06:55;;;;;;;;;49.50;34.75;;;;;8.10;67.57;102350.28;2384731;28;45279;-80
2022/12/01 01:08:11;;;;;;;;;53.75;41.00;;;;;8.10;68.34;102352.03;2384065;28;45168;-80
2022/12/01 01:09:21;;;;;;;;;50.75;36.50;;;;;8.10;67.87;102362.50;2384567;28;45542;-81
2022/12/01 01:10:32;;;;;;;;;55.00;40.00;;;;;8.11;67.60;102359.03;2374829;28;45237;-80
2022/12/01 01:11:42;;;;;;;;;46.00;35.75;;;;;8.09;67.53;102359.03;2377468;28;46539;-80
2022/12/01 01:12:52;;;;;;;;;56.00;42.00;;;;;8.11;67.81;102364.25;2384590;28;45342;-80
2022/12/01 01:14:04;;;;;;;;;51.00;41.25;;;;;8.12;67.58;102367.75;2384622;28;45384;-80
2022/12/01 01:15:14;;;;;;;;;51.00;37.25;;;;;8.11;67.49;102359.03;2384922;28;44596;-80
2022/12/01 01:16:25;;;;;;;;;51.50;39.25;;;;;8.14;67.85;102368.63;2384614;28;46113;-80
2022/12/01 01:17:36;;;;;;;;;48.50;38.50;;;;;8.13;67.74;102365.13;2381302;28;45231;-80
2022/12/01 01:18:47;;;;;;;;;50.00;38.00;;;;;8.15;67.17;102365.16;2376259;28;46294;-80
2022/12/01 01:19:57;;;;;;;;;51.50;37.25;;;;;8.14;67.61;102361.66;2384863;28;45584;-80
2022/12/01 01:21:11;;;;;;;;;49.00;39.75;;;;;8.16;67.31;102365.16;2384541;28;46184;-80
2022/12/01 01:22:22;;;;;;;;;50.00;37.75;;;;;8.17;67.67;102359.03;2384715;28;44626;-80
2022/12/01 01:23:32;;;;;;;;;44.25;34.50;;;;;8.18;67.65;102355.56;2384632;28;46261;-80
2022/12/01 01:24:42;;;;;;;;;46.00;35.00;;;;;8.21;67.52;102362.53;2384927;28;45236;-80
2022/12/01 01:25:53;;;;;;;;;50.75;39.00;;;;;8.20;67.25;102363.41;2384518;28;46526;-80
2022/12/01 01:27:04;;;;;;;;;48.50;37.00;;;;;8.20;67.29;102363.41;2384421;28;45135;-80
2022/12/01 01:28:15;;;;;;;;;48.00;36.75;;;;;8.19;67.03;102359.06;2383679;28;45219;-81
2022/12/01 01:29:25;;;;;;;;;48.25;36.75;;;;;8.17;67.05;102360.78;2384537;28;45409;-80
2022/12/01 01:30:38;;;;;;;;;52.50;41.00;;;;;8.14;67.19;102364.28;2384289;28;46366;-80
2022/12/01 01:31:48;;;;;;;;;47.50;37.25;;;;;8.10;66.63;102357.25;2373479;28;44726;-80
2022/12/01 01:32:59;;;;;;;;;56.25;42.00;;;;;8.09;66.87;102366.88;2377223;28;45383;-80
2022/12/01 01:34:09;;;;;;;;;46.75;36.50;;;;;8.08;66.82;102370.34;2384643;28;45441;-80
2022/12/01 01:35:20;;;;;;;;;45.75;36.75;;;;;8.06;67.07;102366.88;2384486;28;45520;-80
2022/12/01 01:36:30;;;;;;;;;49.50;33.00;;;;;8.05;67.52;102379.97;2384530;28;45353;-80
2022/12/01 01:37:41;;;;;;;;;50.25;37.25;;;;;8.04;67.27;102371.22;2373167;28;48088;-80
2022/12/01 01:38:52;;;;;;;;;52.25;38.25;;;;;8.04;67.23;102362.47;2377399;28;45224;-80
2022/12/01 01:40:03;;;;;;;;;53.00;42.00;;;;;8.05;67.49;102369.47;2383952;28;45639;-80
2022/12/01 01:41:13;;;;;;;;;51.50;39.25;;;;;8.02;66.91;102375.59;2384537;28;45172;-80
2022/12/01 01:42:24;;;;;;;;;44.25;34.50;;;;;8.01;66.83;102368.59;2384397;28;46707;-80
2022/12/01 01:43:39;;;;;;;;;52.75;39.00;;;;;8.02;66.94;102377.31;2374442;28;45379;-80
2022/12/01 01:44:52;;;;;;;;;52.25;42.00;;;;;7.99;67.33;102383.41;2368392;28;47034;-80
2022/12/01 01:46:07;;;;;;;;;49.75;37.00;;;;;7.98;67.36;102374.69;2368175;28;44608;-80
2022/12/01 01:47:23;;;;;;;;;53.00;38.00;;;;;7.97;66.87;102377.31;2377403;28;45532;-80
2022/12/01 01:48:36;;;;;;;;;55.50;41.75;;;;;7.96;67.92;102384.28;2375609;28;45252;-80
2022/12/01 01:49:47;;;;;;;;;52.75;38.25;;;;;7.95;67.07;102371.19;2384417;28;46241;-80
2022/12/01 01:50:58;;;;;;;;;44.50;35.00;;;;;7.95;67.09;102376.44;2384482;28;45383;-80
2022/12/01 01:52:09;;;;;;;;;47.75;33.25;;;;;7.96;67.35;102383.41;2384402;28;46422;-80
2022/12/01 01:53:20;;;;;;;;;48.00;36.25;;;;;7.96;67.59;102386.91;2374607;28;45334;-80
2022/12/01 01:54:36;;;;;;;;;44.25;35.00;;;;;8.00;67.64;102395.63;2377169;28;46365;-80
2022/12/01 01:55:46;;;;;;;;;51.50;35.50;;;;;7.97;67.09;102393.00;2383388;28;45419;-80
2022/12/01 01:56:59;;;;;;;;;49.75;39.00;;;;;7.99;67.34;102386.03;2384127;28;45412;-80
2022/12/01 01:58:10;;;;;;;;;49.50;37.50;;;;;7.97;67.72;102399.13;2377186;28;45502;-80
2022/12/01 01:59:28;;;;;;;;;53.75;39.25;;;;;8.00;67.22;102398.25;2365096;29;47167;-80
2022/12/01 02:00:43;;;;;;;;;51.00;37.25;;;;;7.99;67.66;102386.91;2375945;28;45358;-80
2022/12/01 02:02:02;;;;;;;;;47.75;37.00;;;;;7.99;67.62;102394.78;2384245;28;45188;-80
2022/12/01 02:03:18;;;;;;;;;48.00;35.75;;;;;7.99;67.45;102393.91;2384390;28;45227;-80
2022/12/01 02:04:28;;;;;;;;;48.50;37.25;;;;;7.98;67.65;102390.41;2384495;28;45410;-80
2022/12/01 02:05:41;;;;;;;;;44.00;35.25;;;;;7.96;67.54;102386.91;2384283;28;45410;-80
2022/12/01 02:06:52;;;;;;;;;47.25;36.25;;;;;7.98;67.83;102385.16;2384228;28;45522;-80
2022/12/01 02:08:03;;;;;;;;;51.25;39.50;;;;;7.98;67.34;102376.41;2383751;28;45252;-80
2022/12/01 02:09:14;;;;;;;;;46.50;38.25;;;;;7.97;67.00;102377.31;2384487;28;45440;-80
2022/12/01 02:10:39;;;;;;;;;47.75;37.50;;;;;7.98;67.60;102381.66;2384418;28;45178;-80
2022/12/01 02:12:05;;;;;;;;;53.00;38.50;;;;;7.97;67.63;102383.41;2384244;28;45602;-80
2022/12/01 02:13:24;;;;;;;;;48.75;39.00;;;;;7.99;67.95;102378.19;2384214;28;45244;-80
2022/12/01 02:14:43;;;;;;;;;51.75;39.00;;;;;8.01;67.75;102379.06;2374142;28;48312;-80
2022/12/01 02:16:09;;;;;;;;;52.25;38.75;;;;;8.02;67.63;102377.31;2378141;28;45165;-80
2022/12/01 02:17:48;;;;;;;;;55.25;39.50;;;;;8.04;67.89;102375.56;2374126;28;47645;-80
2022/12/01 02:19:10;;;;;;;;;53.50;40.25;;;;;8.04;67.08;102371.22;2381030;28;44693;-80
2022/12/01 02:20:39;;;;;;;;;32.25;20.50;;;;;8.06;67.29;102373.84;2384106;28;46353;-80
2022/12/01 02:22:25;;;;;;;;;57.50;42.50;;;;;8.06;67.28;102374.72;2384492;28;45402;-80
2022/12/01 02:23:41;;;;;;;;;46.75;35.25;;;;;8.05;66.99;102369.47;2384164;28;45224;-80
2022/12/01 02:25:16;;;;;;;;;50.50;37.50;;;;;8.06;67.00;102369.47;2383604;28;45191;-81
2022/12/01 02:26:42;;;;;;;;;47.25;38.25;;;;;8.06;67.16;102377.34;2384248;28;45358;-80
2022/12/01 02:28:05;;;;;;;;;50.75;39.00;;;;;8.06;67.18;102365.97;2375030;28;45273;-80
2022/12/01 02:29:34;;;;;;;;;51.00;38.75;;;;;8.06;66.93;102371.22;2382258;28;48319;-80
2022/12/01 02:30:51;;;;;;;;;50.50;34.50;;;;;8.06;67.12;102372.09;2374143;28;45277;-80
2022/12/01 02:32:16;;;;;;;;;55.75;40.75;;;;;8.06;67.17;102374.72;2377658;28;46783;-80
2022/12/01 02:33:50;;;;;;;;;50.25;39.25;;;;;8.07;67.27;102368.63;2383878;28;45562;-80
2022/12/01 02:35:00;;;;;;;;;51.50;39.50;;;;;8.09;66.91;102364.25;2382848;28;45458;-80
2022/12/01 02:36:50;;;;;;;;;50.00;36.75;;;;;8.06;66.60;102368.59;2383774;28;45253;-80
2022/12/01 02:38:03;;;;;;;;;53.00;37.50;;;;;8.07;66.92;102367.75;2337208;29;45455;-80
2022/12/01 02:39:34;;;;;;;;;50.00;38.00;;;;;8.04;66.83;102373.84;2370646;28;45289;-80
2022/12/01 02:41:10;;;;;;;;;36.75;33.75;;;;;8.03;66.47;102366.84;2370000;28;47567;-80
2022/12/01 02:42:50;;;;;;;;;51.75;38.00;;;;;8.01;66.49;102368.59;2380302;28;45485;-80
2022/12/01 02:44:07;;;;;;;;;45.50;35.50;;;;;8.00;66.64;102358.97;2383065;28;45410;-80
2022/12/01 02:45:43;;;;;;;;;39.75;30.50;;;;;8.01;66.69;102360.72;2384231;28;44700;-80
2022/12/01 02:47:20;;;;;;;;;50.00;34.75;;;;;8.03;66.39;102365.97;2348777;28;46535;-80
2022/12/01 02:48:37;;;;;;;;;48.75;38.25;;;;;8.02;66.49;102359.88;2380507;28;45584;-80
2022/12/01 02:49:50;;;;;;;;;46.25;35.00;;;;;8.02;66.86;102359.00;2383205;28;45512;-80
2022/12/01 02:51:08;;;;;;;;;52.25;38.75;;;;;8.03;66.87;102356.38;2384136;28;45295;-80
2022/12/01 02:52:21;;;;;;;;;40.50;32.50;;;;;8.05;66.93;102356.38;2384025;28;45520;-80
2022/12/01 02:53:31;;;;;;;;;50.25;36.50;;;;;8.09;66.63;102356.41;2384126;28;45342;-80
2022/12/01 02:54:47;;;;;;;;;51.75;38.00;;;;;8.13;66.67;102359.00;2383981;28;46289;-80
2022/12/01 02:55:58;;;;;;;;;50.00;37.50;;;;;8.12;66.51;102363.41;2382229;28;45311;-80
2022/12/01 02:57:14;;;;;;;;;45.50;34.75;;;;;8.12;66.39;102363.41;2383646;28;45534;-80
2022/12/01 02:58:24;;;;;;;;;43.25;35.25;;;;;8.15;66.60;102365.16;2383887;28;45434;-80
2022/12/01 02:59:34;;;;;;;;;46.00;38.00;;;;;8.14;66.23;102364.28;2383024;28;46485;-80
2022/12/01 03:01:06;;;;;;;;;46.75;33.25;;;;;8.17;66.29;102368.66;2383291;28;45362;-80
2022/12/01 03:02:50;;;;;;;;;47.00;36.25;;;;;8.17;66.78;102369.50;2373602;28;47118;-80
2022/12/01 03:04:20;;;;;;;;;45.75;33.75;;;;;8.18;66.76;102367.75;2374495;28;45339;-80
2022/12/01 03:05:44;;;;;;;;;47.75;35.00;;;;;8.19;66.56;102367.78;2381796;28;46406;-80
2022/12/01 03:07:12;;;;;;;;;50.50;37.00;;;;;8.19;66.63;102361.66;2384011;28;45243;-80
2022/12/01 03:08:31;;;;;;;;;45.00;32.25;;;;;8.19;66.50;102359.06;2383612;28;45428;-80
2022/12/01 03:10:19;;;;;;;;;47.00;36.75;;;;;8.17;66.51;102366.88;2383046;28;45215;-80
2022/12/01 03:11:49;;;;;;;;;48.75;38.00;;;;;8.16;66.86;102366.88;2383894;28;46510;-80
2022/12/01 03:13:23;;;;;;;;;48.25;34.00;;;;;8.14;66.77;102358.16;2383960;28;44684;-80
2022/12/01 03:14:52;;;;;;;;;43.00;33.50;;;;;8.14;66.26;102359.03;2378475;28;45661;-80
2022/12/01 03:16:11;;;;;;;;;45.50;35.00;;;;;8.14;66.51;102360.78;2384092;28;45187;-80
2022/12/01 03:17:29;;;;;;;;;43.25;34.25;;;;;8.13;66.72;102359.00;2383730;28;45309;-80
2022/12/01 03:18:47;;;;;;;;;44.50;35.75;;;;;8.10;66.17;102359.88;2384038;28;45322;-81
2022/12/01 03:20:10;;;;;;;;;49.00;35.50;;;;;8.09;66.81;102353.78;2379055;28;45421;-80
2022/12/01 03:21:35;;;;;;;;;51.25;39.25;;;;;8.08;66.70;102353.75;2383214;28;44718;-80
2022/12/01 03:22:51;;;;;;;;;51.25;38.75;;;;;8.08;66.74;102354.63;2383671;28;45522;-80
2022/12/01 03:24:07;;;;;;;;;39.25;28.50;;;;;8.06;66.71;102345.91;2384001;28;44626;-80
2022/12/01 03:25:22;;;;;;;;;52.00;37.00;;;;;8.07;66.62;102349.41;2383016;28;45467;-80
2022/12/01 03:26:35;;;;;;;;;49.50;38.50;;;;;8.05;66.11;102348.53;2383670;28;45224;-80
2022/12/01 03:27:48;;;;;;;;;51.25;37.25;;;;;8.04;66.73;102350.28;2373498;28;47200;-80
2022/12/01 03:29:15;;;;;;;;;51.50;38.25;;;;;8.04;66.62;102355.50;2377077;28;45370;-80
2022/12/01 03:30:29;;;;;;;;;49.00;39.25;;;;;8.03;67.00;102351.13;2383668;28;45353;-80
2022/12/01 03:31:46;;;;;;;;;48.50;34.50;;;;;8.00;67.17;102348.50;2383795;28;45384;-80
2022/12/01 03:33:03;;;;;;;;;38.50;32.50;;;;;8.00;66.31;102351.09;2383856;28;46191;-80
2022/12/01 03:34:22;;;;;;;;;46.25;37.00;;;;;7.97;66.78;102357.25;2384027;28;45148;-80
2022/12/01 03:35:41;;;;;;;;;48.75;36.75;;;;;7.95;67.11;102358.09;2383638;28;46229;-80
2022/12/01 03:36:58;;;;;;;;;47.50;36.00;;;;;7.92;67.14;102358.97;2383920;28;45156;-80
2022/12/01 03:38:16;;;;;;;;;47.25;35.50;;;;;7.90;67.17;102355.47;2382335;28;45539;-80
2022/12/01 03:39:34;;;;;;;;;48.75;36.25;;;;;7.90;66.85;102359.81;2383066;28;45314;-80
2022/12/01 03:40:48;;;;;;;;;56.25;38.75;;;;;7.87;67.27;102361.56;2383355;28;45452;-80
2022/12/01 03:42:04;;;;;;;;;48.00;36.00;;;;;7.89;67.09;102366.78;2382966;28;45256;-80
2022/12/01 03:43:20;;;;;;;;;51.00;39.75;;;;;7.86;67.15;102365.03;2373238;28;47448;-80
2022/12/01 03:44:38;;;;;;;;;46.00;35.75;;;;;7.84;67.43;102351.06;2377609;28;45351;-80
2022/12/01 03:46:09;;;;;;;;;49.75;35.50;;;;;7.84;67.27;102360.66;2383612;28;46603;-80
2022/12/01 03:47:23;;;;;;;;;50.75;36.75;;;;;7.79;67.47;102360.63;2373472;28;45328;-80
2022/12/01 03:48:33;;;;;;;;;54.25;39.25;;;;;7.77;67.27;102362.38;2368718;28;46443;-80
2022/12/01 03:49:46;;;;;;;;;51.25;35.75;;;;;7.76;67.14;102358.00;2378918;28;44754;-80
2022/12/01 03:51:12;;;;;;;;;47.50;36.00;;;;;7.77;67.38;102365.00;2374461;28;46275;-80
2022/12/01 03:52:47;;;;;;;;;45.75;35.25;;;;;7.76;67.45;102363.22;2383510;28;45287;-80
2022/12/01 03:54:25;;;;;;;;;49.50;39.25;;;;;7.75;67.72;102364.13;2373528;28;48067;-80
2022/12/01 03:55:40;;;;;;;;;51.75;39.00;;;;;7.71;67.44;102360.59;2382126;28;45250;-80
2022/12/01 03:56:56;;;;;;;;;53.00;39.00;;;;;7.74;67.47;102359.72;2384853;28;46976;-80
2022/12/01 03:58:13;;;;;;;;;51.75;38.25;;;;;7.76;67.77;102363.22;2384519;28;45231;-80
2022/12/01 03:59:26;;;;;;;;;49.25;36.25;;;;;7.73;67.66;102361.47;2385209;28;45703;-80
2022/12/01 04:00:36;;;;;;;;;47.25;37.00;;;;;7.74;67.39;102359.72;2385458;28;45448;-80
2022/12/01 04:01:47;;;;;;;;;54.00;39.50;;;;;7.74;67.67;102367.59;2385104;28;46367;-80
2022/12/01 04:03:01;;;;;;;;;47.50;37.00;;;;;7.74;68.10;102354.50;2385236;28;45334;-80
2022/12/01 04:04:13;;;;;;;;;50.50;32.00;;;;;7.76;67.91;102352.75;2385175;28;45264;-80
2022/12/01 04:05:25;;;;;;;;;53.25;38.00;;;;;7.77;67.52;102359.75;2385387;28;45168;-80
2022/12/01 04:06:37;;;;;;;;;50.00;36.25;;;;;7.76;67.65;102358.00;2385165;28;45386;-81
2022/12/01 04:07:48;;;;;;;;;55.00;39.00;;;;;7.75;67.79;102357.09;2383197;28;45484;-80
2022/12/01 04:08:58;;;;;;;;;53.75;40.25;;;;;7.74;68.03;102351.88;2375942;28;45563;-80
2022/12/01 04:10:09;;;;;;;;;48.75;39.00;;;;;7.73;67.48;102348.38;2384911;28;45248;-80
2022/12/01 04:12:48;;;;;;;;;49.50;39.25;;;;;7.74;67.38;102346.66;2385027;28;45285;-80
2022/12/01 04:13:59;;;;;;;;;50.50;36.50;;;;;7.76;67.45;102350.13;2385155;28;46244;-80
2022/12/01 04:15:11;;;;;;;;;48.50;36.50;;;;;7.80;67.94;102357.16;2384508;28;45477;-80
2022/12/01 04:16:21;;;;;;;;;49.75;39.75;;;;;7.81;67.89;102356.28;2374971;28;47122;-80
2022/12/01 04:17:32;;;;;;;;;54.00;39.75;;;;;7.79;67.96;102354.50;2377907;28;45180;-80
2022/12/01 04:18:43;;;;;;;;;51.00;37.25;;;;;7.78;67.71;102351.03;2385071;28;45409;-80
2022/12/01 04:19:53;;;;;;;;;52.00;40.50;;;;;7.79;67.63;102346.66;2384315;28;45268;-80
2022/12/01 04:21:04;;;;;;;;;53.25;38.00;;;;;7.78;67.75;102356.25;2385036;28;46239;-80
2022/12/01 04:22:14;;;;;;;;;52.75;37.00;;;;;7.77;67.79;102351.91;2385104;28;45165;-80
2022/12/01 04:24:53;;;;;;;;;48.75;37.50;;;;;7.76;67.59;102347.53;2383622;28;45274;-80
2022/12/01 04:26:04;;;;;;;;;38.75;29.25;;;;;7.75;67.80;102344.03;2376572;28;45357;-80
2022/12/01 04:27:14;;;;;;;;;52.50;37.75;;;;;7.75;67.81;102340.56;2384583;28;45268;-80
2022/12/01 04:28:25;;;;;;;;;48.25;39.00;;;;;7.75;67.80;102341.41;2384705;28;45331;-80
2022/12/01 04:29:35;;;;;;;;;52.00;36.75;;;;;7.75;67.82;102353.66;2385093;28;45184;-80
2022/12/01 04:30:46;;;;;;;;;52.50;39.00;;;;;7.76;67.75;102348.41;2384863;28;45379;-80
2022/12/01 04:31:56;;;;;;;;;50.00;36.50;;;;;7.78;67.84;102342.31;2384485;28;45483;-80
2022/12/01 04:33:06;;;;;;;;;53.75;39.50;;;;;7.80;67.59;102345.81;2383996;28;47279;-80
2022/12/01 04:34:17;;;;;;;;;51.00;37.25;;;;;7.80;67.90;102349.31;2384705;28;45458;-80
2022/12/01 04:35:27;;;;;;;;;50.25;38.75;;;;;7.80;67.62;102351.94;2384016;28;45497;-80
2022/12/01 04:36:37;;;;;;;;;50.25;38.50;;;;;7.81;67.80;102345.81;2385018;28;44756;-81
2022/12/01 04:37:48;;;;;;;;;50.00;38.75;;;;;7.78;67.51;102351.03;2384857;28;46472;-80
2022/12/01 04:38:59;;;;;;;;;42.75;33.50;;;;;7.79;67.58;102347.53;2385123;28;44762;-80
2022/12/01 04:40:09;;;;;;;;;48.00;36.25;;;;;7.78;67.83;102355.41;2384845;28;46463;-80
2022/12/01 04:41:20;;;;;;;;;48.50;34.25;;;;;7.76;67.63;102351.03;2385088;28;44692;-80
2022/12/01 04:42:30;;;;;;;;;42.25;35.00;;;;;7.76;67.64;102344.91;2384927;28;45561;-80
2022/12/01 04:43:41;;;;;;;;;49.75;37.50;;;;;7.75;67.88;102348.41;2384801;28;44714;-80
2022/12/01 04:44:51;;;;;;;;;41.50;33.50;;;;;7.75;67.56;102351.88;2383853;28;47403;-80
2022/12/01 04:46:02;;;;;;;;;50.75;38.00;;;;;7.73;67.71;102352.75;2376990;28;45149;-80
2022/12/01 04:47:13;;;;;;;;;50.50;39.25;;;;;7.73;67.85;102350.16;2384626;28;46297;-80
2022/12/01 04:48:23;;;;;;;;;51.00;37.50;;;;;7.75;67.55;102353.66;2385024;28;44572;-80
2022/12/01 04:49:35;;;;;;;;;49.25;37.50;;;;;7.76;67.81;102353.63;2384331;28;45213;-80
2022/12/01 04:50:48;;;;;;;;;55.50;40.25;;;;;7.79;67.73;102346.66;2385125;28;45227;-80
2022/12/01 04:51:58;;;;;;;;;36.75;31.75;;;;;7.79;68.00;102354.50;2384631;28;45489;-80
2022/12/01 04:53:09;;;;;;;;;56.00;42.00;;;;;7.78;67.53;102356.25;2374722;28;45339;-80
2022/12/01 04:54:19;;;;;;;;;49.25;37.25;;;;;7.78;67.44;102345.78;2367988;28;47444;-80
2022/12/01 04:55:29;;;;;;;;;53.00;38.00;;;;;7.78;67.04;102358.88;2377353;28;45277;-80
2022/12/01 04:56:40;;;;;;;;;41.25;36.00;;;;;7.79;67.18;102362.38;2384341;28;45255;-80
2022/12/01 04:57:51;;;;;;;;;52.75;37.75;;;;;7.76;67.20;102348.41;2384554;28;45267;-80
2022/12/01 04:59:01;;;;;;;;;53.00;35.00;;;;;7.74;67.40;102359.72;2384842;28;45583;-80
2022/12/01 05:00:12;;;;;;;;;47.00;35.75;;;;;7.70;67.57;102356.25;2384868;28;45258;-80
2022/12/01 05:01:22;;;;;;;;;52.25;35.75;;;;;7.69;67.36;102358.81;2384654;28;45278;-80
2022/12/01 05:02:33;;;;;;;;;54.50;39.25;;;;;7.67;67.63;102361.44;2384762;28;45225;-81
2022/12/01 05:03:45;;;;;;;;;45.25;34.50;;;;;7.65;67.30;102357.94;2380657;28;45234;-80
2022/12/01 05:04:55;;;;;;;;;52.75;39.25;;;;;7.63;67.43;102354.47;2383704;28;45245;-80
2022/12/01 05:06:12;;;;;;;;;45.50;35.00;;;;;7.66;67.46;102362.31;2383539;28;46149;-80
2022/12/01 05:07:22;;;;;;;;;50.25;38.75;;;;;7.64;67.16;102356.19;2384818;28;44563;-80
2022/12/01 05:08:33;;;;;;;;;53.50;39.50;;;;;7.63;67.18;102354.47;2374761;28;46831;-80
2022/12/01 05:09:43;;;;;;;;;51.75;37.75;;;;;7.62;67.51;102352.69;2377612;28;44625;-80
2022/12/01 05:10:55;;;;;;;;;51.75;38.00;;;;;7.63;67.65;102357.06;2374684;28;46926;-80
2022/12/01 05:12:05;;;;;;;;;43.00;35.75;;;;;7.61;67.24;102361.41;2377834;28;45304;-80
2022/12/01 05:13:15;;;;;;;;;50.25;38.00;;;;;7.58;67.08;102351.78;2384138;28;46341;-80
2022/12/01 05:14:26;;;;;;;;;52.25;40.00;;;;;7.57;67.34;102355.28;2382243;28;44841;-80
2022/12/01 05:15:36;;;;;;;;;48.50;34.50;;;;;7.59;68.02;102353.56;2384530;28;45576;-80
2022/12/01 05:16:46;;;;;;;;;45.50;37.00;;;;;7.61;67.52;102351.81;2384720;28;45267;-80
2022/12/01 05:17:57;;;;;;;;;46.50;37.00;;;;;7.62;67.44;102355.31;2382975;28;48431;-80
2022/12/01 05:22:05;;;;;;;;;49.25;37.50;;;;;7.60;67.38;102362.28;2375540;28;44671;-80
2022/12/01 05:23:16;;;;;;;;;52.25;37.25;;;;;7.59;67.77;102361.41;2382623;28;45195;-80
2022/12/01 05:24:26;;;;;;;;;52.75;38.75;;;;;7.61;67.70;102361.41;2384310;28;45584;-80
2022/12/01 05:25:37;;;;;;;;;45.25;34.75;;;;;7.62;67.34;102366.66;2384531;28;45350;-80
2022/12/01 05:26:47;;;;;;;;;44.25;37.00;;;;;7.60;67.08;102357.06;2374311;28;45331;-80
2022/12/01 05:27:57;;;;;;;;;57.00;40.00;;;;;7.60;67.11;102363.16;2377026;28;46510;-80
2022/12/01 05:29:08;;;;;;;;;50.00;34.75;;;;;7.59;67.29;102355.28;2384660;28;45149;-80
2022/12/01 05:30:19;;;;;;;;;48.00;37.50;;;;;7.61;67.22;102359.66;2384513;28;45363;-80
2022/12/01 05:31:30;;;;;;;;;47.50;37.25;;;;;7.60;67.38;102357.06;2384037;28;44720;-80
2022/12/01 05:32:41;;;;;;;;;49.75;35.00;;;;;7.60;67.16;102357.94;2374556;28;48282;-80
2022/12/01 05:33:51;;;;;;;;;49.75;39.25;;;;;7.60;67.45;102351.81;2377033;28;45262;-80
2022/12/01 05:35:01;;;;;;;;;49.50;37.75;;;;;7.60;67.40;102354.44;2384433;28;45268;-80
2022/12/01 05:36:12;;;;;;;;;47.00;37.75;;;;;7.58;67.18;102354.41;2384633;28;44758;-80
2022/12/01 05:37:22;;;;;;;;;50.25;38.75;;;;;7.57;67.55;102357.91;2384717;28;46305;-80
2022/12/01 05:38:32;;;;;;;;;47.25;37.75;;;;;7.56;67.36;102355.25;2384673;28;44689;-80
2022/12/01 05:39:43;;;;;;;;;44.75;34.25;;;;;7.55;67.27;102349.19;2374339;28;47682;-79
2022/12/01 05:40:54;;;;;;;;;37.50;27.25;;;;;7.56;67.24;102355.25;2373817;28;45359;-80
2022/12/01 05:42:05;;;;;;;;;51.25;35.75;;;;;7.52;67.68;102363.13;2377539;28;45469;-80
2022/12/01 05:43:15;;;;;;;;;46.25;35.50;;;;;7.54;67.67;102356.13;2384365;28;45488;-80
2022/12/01 05:44:25;;;;;;;;;50.50;38.25;;;;;7.53;67.27;102351.75;2383657;28;46355;-80
2022/12/01 05:45:36;;;;;;;;;50.25;38.25;;;;;7.56;67.22;102350.03;2384538;28;44620;-80
2022/12/01 05:46:46;;;;;;;;;50.50;39.75;;;;;7.56;67.27;102350.03;2383561;28;45425;-80
2022/12/01 05:47:58;;;;;;;;;47.00;34.00;;;;;7.58;67.30;102357.00;2381909;28;44706;-80
2022/12/01 05:49:08;;;;;;;;;49.75;35.00;;;;;7.60;67.18;102350.06;2384536;28;46468;-80